createdAt,value
2023-03-26T00:00:26.685Z,0.00
2023-03-26T00:01:26.676Z,0.00
2023-03-26T00:02:26.702Z,0.00
2023-03-26T00:03:26.643Z,0.00
2023-03-26T00:04:26.631Z,0.00
2023-03-26T00:05:26.659Z,0.00
2023-03-26T00:06:26.607Z,0.00
2023-03-26T00:07:26.565Z,0.00
2023-03-26T00:08:26.570Z,0.00
2023-03-26T00:09:26.538Z,0.00
2023-03-26T00:10:26.529Z,0.00
2023-03-26T00:11:26.511Z,0.00
2023-03-26T00:12:26.509Z,0.00
2023-03-26T00:13:26.500Z,0.00
2023-03-26T00:14:26.489Z,0.00
2023-03-26T00:15:33.978Z,0.00
2023-03-26T00:16:26.510Z,0.00
2023-03-26T00:17:26.497Z,0.00
2023-03-26T00:18:26.429Z,0.00
2023-03-26T00:19:26.429Z,0.00
2023-03-26T00:20:26.490Z,0.00
2023-03-26T00:21:26.420Z,0.00
2023-03-26T00:22:26.396Z,0.00
2023-03-26T00:23:26.357Z,0.00
2023-03-26T00:24:26.374Z,0.00
2023-03-26T00:25:26.329Z,0.00
2023-03-26T00:26:26.330Z,0.00
2023-03-26T00:27:26.367Z,0.00
2023-03-26T00:28:26.388Z,0.00
2023-03-26T00:29:26.307Z,0.00
2023-03-26T00:30:26.330Z,0.00
2023-03-26T00:31:26.279Z,0.00
2023-03-26T00:32:26.262Z,0.00
2023-03-26T00:33:26.237Z,0.00
2023-03-26T00:34:26.259Z,0.00
2023-03-26T00:35:26.263Z,0.00
2023-03-26T00:36:26.245Z,0.00
2023-03-26T00:37:26.195Z,0.00
2023-03-26T00:38:26.182Z,0.00
2023-03-26T00:39:26.191Z,0.00
2023-03-26T00:40:26.189Z,0.00
2023-03-26T00:41:26.563Z,0.00
2023-03-26T00:42:26.155Z,0.00
2023-03-26T00:43:26.113Z,0.00
2023-03-26T00:44:26.154Z,0.00
2023-03-26T00:45:26.080Z,0.00
2023-03-26T00:46:26.155Z,0.00
2023-03-26T00:47:26.088Z,0.00
2023-03-26T00:48:37.808Z,0.00
2023-03-26T00:49:27.045Z,0.00
2023-03-26T00:50:26.038Z,0.00
2023-03-26T00:51:26.022Z,0.00
2023-03-26T00:52:26.029Z,0.00
2023-03-26T00:53:25.987Z,0.00
2023-03-26T00:54:25.995Z,0.00
2023-03-26T00:55:26.022Z,0.00
2023-03-26T00:56:25.954Z,0.00
2023-03-26T00:57:35.026Z,0.00
2023-03-26T00:58:26.937Z,0.00
2023-03-26T00:59:25.930Z,0.00
2023-03-26T01:00:25.953Z,0.00
2023-03-26T01:01:25.970Z,0.00
2023-03-26T01:02:25.950Z,0.00
2023-03-26T01:03:27.463Z,0.00
2023-03-26T01:04:26.003Z,0.00
2023-03-26T01:05:25.898Z,0.00
2023-03-26T01:06:25.832Z,0.00
2023-03-26T01:07:25.806Z,0.00
2023-03-26T01:08:25.803Z,0.00
2023-03-26T01:09:25.792Z,0.00
2023-03-26T01:10:25.772Z,0.00
2023-03-26T01:11:25.773Z,0.00
2023-03-26T01:12:25.782Z,0.00
2023-03-26T01:13:25.739Z,0.00
2023-03-26T01:14:25.800Z,0.00
2023-03-26T01:15:25.707Z,0.00
2023-03-26T01:16:25.828Z,0.00
2023-03-26T01:17:25.689Z,0.00
2023-03-26T01:18:25.661Z,0.00
2023-03-26T01:19:25.678Z,0.00
2023-03-26T01:20:25.680Z,0.00
2023-03-26T01:21:25.670Z,0.00
2023-03-26T01:22:25.643Z,0.00
2023-03-26T01:23:25.597Z,0.00
2023-03-26T01:24:25.605Z,0.00
2023-03-26T01:25:25.598Z,0.00
2023-03-26T01:26:25.592Z,0.00
2023-03-26T01:27:25.569Z,0.00
2023-03-26T01:28:25.564Z,0.00
2023-03-26T01:29:25.596Z,0.00
2023-03-26T01:30:25.541Z,0.00
2023-03-26T01:31:25.479Z,0.00
2023-03-26T01:32:25.565Z,0.00
2023-03-26T01:33:25.603Z,0.00
2023-03-26T01:34:25.497Z,0.00
2023-03-26T01:35:25.527Z,0.00
2023-03-26T01:36:25.432Z,0.00
2023-03-26T01:37:25.435Z,0.00
2023-03-26T01:38:25.441Z,0.00
2023-03-26T01:39:25.433Z,0.00
2023-03-26T01:40:25.415Z,0.00
2023-03-26T01:41:25.400Z,0.00
2023-03-26T01:42:25.370Z,0.00
2023-03-26T01:43:25.336Z,0.00
2023-03-26T01:44:25.428Z,0.00
2023-03-26T01:45:25.338Z,0.00
2023-03-26T01:46:25.392Z,0.00
2023-03-26T01:47:25.327Z,0.00
2023-03-26T01:48:25.346Z,0.00
2023-03-26T01:49:25.312Z,0.00
2023-03-26T01:50:25.259Z,0.00
2023-03-26T01:51:25.237Z,0.00
2023-03-26T01:52:25.321Z,0.00
2023-03-26T01:53:25.234Z,0.00
2023-03-26T01:54:25.207Z,0.00
2023-03-26T01:55:25.173Z,0.00
2023-03-26T01:56:25.175Z,0.00
2023-03-26T01:57:25.154Z,0.00
2023-03-26T01:58:25.164Z,0.00
2023-03-26T01:59:25.161Z,0.00
2023-03-26T02:00:25.129Z,0.00
2023-03-26T02:01:25.187Z,0.00
2023-03-26T02:02:25.241Z,0.00
2023-03-26T02:03:25.155Z,0.00
2023-03-26T02:04:25.080Z,0.00
2023-03-26T02:05:25.074Z,0.00
2023-03-26T02:06:25.056Z,0.00
2023-03-26T02:07:25.032Z,0.00
2023-03-26T02:08:25.054Z,0.00
2023-03-26T02:09:25.052Z,0.00
2023-03-26T02:10:25.011Z,0.00
2023-03-26T02:11:34.709Z,0.00
2023-03-26T02:12:25.974Z,0.00
2023-03-26T02:13:24.951Z,0.00
2023-03-26T02:14:24.949Z,0.00
2023-03-26T02:15:24.942Z,0.00
2023-03-26T02:16:24.939Z,0.00
2023-03-26T02:17:24.969Z,0.00
2023-03-26T02:18:24.883Z,0.00
2023-03-26T02:19:24.881Z,0.00
2023-03-26T02:20:24.943Z,0.00
2023-03-26T02:21:24.872Z,0.00
2023-03-26T02:22:24.831Z,0.00
2023-03-26T02:23:24.825Z,0.00
2023-03-26T02:24:24.842Z,0.00
2023-03-26T02:25:24.804Z,0.00
2023-03-26T02:26:24.798Z,0.00
2023-03-26T02:27:24.792Z,0.00
2023-03-26T02:28:24.747Z,0.00
2023-03-26T02:29:24.765Z,0.00
2023-03-26T02:30:24.769Z,0.00
2023-03-26T02:31:24.736Z,0.00
2023-03-26T02:32:25.147Z,0.00
2023-03-26T02:33:24.702Z,0.00
2023-03-26T02:34:24.697Z,0.00
2023-03-26T02:35:24.801Z,0.00
2023-03-26T02:36:24.882Z,0.00
2023-03-26T02:37:24.657Z,0.00
2023-03-26T02:38:24.648Z,0.00
2023-03-26T02:39:24.641Z,0.00
2023-03-26T02:40:24.690Z,0.00
2023-03-26T02:41:24.613Z,0.00
2023-03-26T02:42:24.597Z,0.00
2023-03-26T02:43:24.559Z,0.00
2023-03-26T02:44:24.583Z,0.00
2023-03-26T02:45:24.582Z,0.00
2023-03-26T02:46:24.553Z,0.00
2023-03-26T02:47:24.571Z,0.00
2023-03-26T02:48:24.556Z,0.00
2023-03-26T02:49:24.491Z,0.00
2023-03-26T02:50:24.552Z,0.00
2023-03-26T02:51:24.483Z,0.00
2023-03-26T02:52:24.485Z,0.00
2023-03-26T02:53:24.430Z,0.00
2023-03-26T02:54:24.438Z,0.00
2023-03-26T02:55:24.422Z,0.00
2023-03-26T02:56:24.459Z,0.00
2023-03-26T02:57:24.385Z,0.00
2023-03-26T02:58:24.353Z,0.00
2023-03-26T02:59:24.375Z,0.00
2023-03-26T03:00:24.364Z,0.00
2023-03-26T03:01:24.434Z,0.00
2023-03-26T03:02:24.410Z,0.00
2023-03-26T03:03:24.389Z,0.00
2023-03-26T03:04:24.277Z,0.00
2023-03-26T03:05:24.306Z,0.00
2023-03-26T03:06:24.269Z,0.00
2023-03-26T03:07:24.310Z,0.00
2023-03-26T03:08:24.235Z,0.00
2023-03-26T03:09:24.223Z,0.00
2023-03-26T03:10:24.214Z,0.00
2023-03-26T03:11:24.217Z,0.00
2023-03-26T03:12:24.183Z,0.00
2023-03-26T03:13:24.174Z,0.00
2023-03-26T03:14:24.235Z,0.00
2023-03-26T03:15:24.211Z,0.00
2023-03-26T03:16:24.170Z,0.00
2023-03-26T03:17:24.144Z,0.00
2023-03-26T03:18:24.197Z,0.00
2023-03-26T03:19:24.104Z,0.00
2023-03-26T03:20:24.188Z,0.00
2023-03-26T03:21:24.097Z,0.00
2023-03-26T03:22:24.062Z,0.00
2023-03-26T03:23:24.061Z,0.00
2023-03-26T03:24:24.038Z,0.00
2023-03-26T03:25:24.039Z,0.00
2023-03-26T03:26:23.995Z,0.00
2023-03-26T03:27:24.044Z,0.00
2023-03-26T03:28:23.994Z,0.00
2023-03-26T03:29:24.006Z,0.00
2023-03-26T03:30:23.981Z,0.00
2023-03-26T03:31:24.001Z,0.00
2023-03-26T03:32:23.978Z,0.00
2023-03-26T03:33:23.947Z,0.00
2023-03-26T03:34:23.898Z,0.00
2023-03-26T03:35:23.953Z,0.00
2023-03-26T03:36:23.881Z,0.00
2023-03-26T03:37:23.887Z,0.00
2023-03-26T03:38:23.868Z,0.00
2023-03-26T03:39:23.850Z,0.00
2023-03-26T03:40:23.895Z,0.00
2023-03-26T03:41:23.813Z,0.00
2023-03-26T03:42:23.820Z,0.00
2023-03-26T03:43:23.795Z,0.00
2023-03-26T03:44:23.800Z,0.00
2023-03-26T03:45:23.789Z,0.00
2023-03-26T03:46:23.753Z,0.00
2023-03-26T03:47:23.815Z,0.00
2023-03-26T03:48:23.733Z,0.00
2023-03-26T03:49:23.755Z,0.00
2023-03-26T04:02:55.014Z,0.00
2023-03-26T04:03:54.958Z,0.00
2023-03-26T04:04:54.891Z,0.00
2023-03-26T04:05:55.485Z,0.00
2023-03-26T04:06:54.899Z,0.00
2023-03-26T04:07:54.850Z,0.00
2023-03-26T04:08:54.873Z,0.00
2023-03-26T04:09:54.831Z,0.00
2023-03-26T04:10:54.839Z,0.00
2023-03-26T04:11:54.823Z,0.00
2023-03-26T04:12:54.885Z,0.00
2023-03-26T04:13:54.781Z,0.00
2023-03-26T04:14:54.780Z,0.00
2023-03-26T04:15:54.897Z,0.00
2023-03-26T04:16:54.748Z,0.00
2023-03-26T04:17:54.805Z,0.00
2023-03-26T04:18:54.715Z,0.00
2023-03-26T04:19:54.690Z,0.00
2023-03-26T04:20:54.699Z,0.00
2023-03-26T04:21:54.684Z,0.00
2023-03-26T04:22:54.660Z,0.00
2023-03-26T04:23:54.644Z,0.00
2023-03-26T04:24:54.765Z,0.00
2023-03-26T04:25:54.912Z,0.00
2023-03-26T04:26:54.604Z,0.00
2023-03-26T04:27:54.595Z,0.00
2023-03-26T04:28:54.588Z,0.00
2023-03-26T04:29:54.551Z,0.00
2023-03-26T04:30:54.569Z,0.00
2023-03-26T04:31:54.714Z,0.00
2023-03-26T04:32:54.628Z,0.00
2023-03-26T04:33:54.500Z,0.00
2023-03-26T04:34:54.491Z,0.00
2023-03-26T04:35:54.710Z,0.00
2023-03-26T04:36:54.730Z,0.00
2023-03-26T04:37:54.492Z,0.00
2023-03-26T04:38:54.453Z,0.00
2023-03-26T04:39:54.438Z,0.00
2023-03-26T04:40:54.437Z,0.00
2023-03-26T04:41:54.414Z,0.00
2023-03-26T04:42:54.426Z,0.00
2023-03-26T04:43:54.420Z,0.00
2023-03-26T04:44:54.378Z,0.00
2023-03-26T04:45:54.676Z,0.00
2023-03-26T04:46:54.408Z,0.00
2023-03-26T04:47:54.363Z,0.00
2023-03-26T04:48:54.316Z,0.00
2023-03-26T04:49:54.308Z,0.00
2023-03-26T04:50:54.321Z,0.00
2023-03-26T04:51:54.270Z,0.00
2023-03-26T04:52:54.289Z,0.00
2023-03-26T04:53:54.291Z,0.00
2023-03-26T04:54:54.243Z,0.00
2023-03-26T04:55:54.385Z,0.00
2023-03-26T04:56:54.269Z,0.00
2023-03-26T04:57:54.202Z,0.00
2023-03-26T04:58:54.228Z,0.00
2023-03-26T04:59:54.167Z,0.00
2023-03-26T05:00:54.191Z,0.00
2023-03-26T05:01:54.159Z,0.00
2023-03-26T05:02:54.263Z,0.00
2023-03-26T05:03:54.188Z,0.00
2023-03-26T05:04:54.162Z,0.00
2023-03-26T05:05:54.261Z,0.00
2023-03-26T05:06:54.081Z,0.00
2023-03-26T05:07:54.089Z,0.00
2023-03-26T05:08:54.144Z,0.00
2023-03-26T05:09:54.059Z,0.00
2023-03-26T05:10:54.247Z,0.00
2023-03-26T05:11:54.029Z,0.00
2023-03-26T05:12:53.997Z,0.00
2023-03-26T05:13:53.975Z,0.00
2023-03-26T05:14:54.048Z,0.00
2023-03-26T05:15:53.980Z,0.00
2023-03-26T05:16:53.942Z,0.00
2023-03-26T05:17:54.071Z,0.00
2023-03-26T05:18:53.948Z,5.62
2023-03-26T05:19:53.927Z,5.62
2023-03-26T05:20:54.091Z,5.62
2023-03-26T05:21:53.899Z,5.62
2023-03-26T05:22:53.888Z,5.62
2023-03-26T05:23:53.860Z,5.62
2023-03-26T05:24:53.858Z,5.62
2023-03-26T05:25:53.856Z,5.62
2023-03-26T05:26:53.886Z,5.62
2023-03-26T05:27:53.794Z,5.62
2023-03-26T05:28:53.800Z,5.62
2023-03-26T05:29:53.775Z,11.25
2023-03-26T05:30:54.073Z,11.25
2023-03-26T05:31:53.773Z,11.25
2023-03-26T05:32:53.784Z,11.25
2023-03-26T05:33:53.735Z,11.25
2023-03-26T05:34:53.707Z,11.25
2023-03-26T05:35:53.737Z,11.25
2023-03-26T05:36:53.718Z,11.25
2023-03-26T05:37:53.670Z,11.25
2023-03-26T05:38:53.655Z,11.25
2023-03-26T05:39:53.708Z,11.25
2023-03-26T05:40:53.820Z,11.25
2023-03-26T05:41:53.638Z,11.25
2023-03-26T05:42:53.616Z,11.25
2023-03-26T05:43:53.585Z,11.25
2023-03-26T05:44:53.573Z,16.88
2023-03-26T05:45:53.657Z,16.88
2023-03-26T05:46:53.567Z,16.88
2023-03-26T05:47:53.572Z,16.88
2023-03-26T05:48:53.542Z,16.88
2023-03-26T05:49:53.504Z,16.88
2023-03-26T05:50:53.785Z,16.88
2023-03-26T05:51:55.428Z,16.88
2023-03-26T05:52:53.494Z,16.88
2023-03-26T05:53:53.485Z,22.50
2023-03-26T05:54:53.450Z,22.50
2023-03-26T05:55:53.448Z,22.50
2023-03-26T05:56:53.465Z,22.50
2023-03-26T05:57:53.438Z,22.50
2023-03-26T05:58:53.463Z,22.50
2023-03-26T05:59:53.411Z,28.12
2023-03-26T06:00:53.615Z,28.12
2023-03-26T06:01:53.354Z,28.12
2023-03-26T06:02:53.430Z,28.12
2023-03-26T06:03:53.466Z,28.12
2023-03-26T06:04:53.352Z,28.12
2023-03-26T06:05:53.373Z,28.12
2023-03-26T06:06:53.326Z,28.12
2023-03-26T06:07:53.283Z,33.75
2023-03-26T06:09:01.109Z,33.75
2023-03-26T06:09:54.265Z,33.75
2023-03-26T06:10:53.600Z,33.75
2023-03-26T06:11:53.229Z,33.75
2023-03-26T06:12:53.238Z,33.75
2023-03-26T06:13:53.221Z,33.75
2023-03-26T06:14:53.221Z,33.75
2023-03-26T06:16:01.915Z,33.75
2023-03-26T06:16:53.151Z,28.12
2023-03-26T06:17:53.190Z,28.12
2023-03-26T06:18:56.370Z,28.12
2023-03-26T06:19:53.156Z,28.12
2023-03-26T06:20:53.305Z,28.12
2023-03-26T06:21:53.098Z,22.50
2023-03-26T06:22:53.094Z,22.50
2023-03-26T06:23:53.080Z,16.88
2023-03-26T06:24:53.090Z,16.88
2023-03-26T06:25:53.037Z,16.88
2023-03-26T06:26:53.016Z,22.50
2023-03-26T06:27:53.027Z,22.50
2023-03-26T06:28:52.994Z,28.12
2023-03-26T06:29:53.000Z,28.12
2023-03-26T06:30:53.367Z,33.75
2023-03-26T06:31:52.966Z,33.75
2023-03-26T06:32:53.046Z,39.38
2023-03-26T06:33:52.947Z,39.38
2023-03-26T06:34:52.931Z,45.00
2023-03-26T06:35:53.044Z,50.62
2023-03-26T06:36:52.916Z,45.00
2023-03-26T06:37:52.899Z,45.00
2023-03-26T06:38:52.879Z,45.00
2023-03-26T06:39:52.861Z,39.38
2023-03-26T06:40:53.138Z,39.38
2023-03-26T06:41:52.839Z,33.75
2023-03-26T06:43:10.188Z,33.75
2023-03-26T06:43:53.821Z,33.75
2023-03-26T06:44:52.791Z,33.75
2023-03-26T06:45:52.806Z,39.38
2023-03-26T06:46:52.843Z,39.38
2023-03-26T06:47:52.853Z,39.38
2023-03-26T06:48:52.741Z,39.38
2023-03-26T06:49:52.779Z,39.38
2023-03-26T06:50:52.988Z,39.38
2023-03-26T06:51:52.702Z,39.38
2023-03-26T06:52:52.773Z,39.38
2023-03-26T06:53:52.673Z,45.00
2023-03-26T06:54:52.690Z,45.00
2023-03-26T06:55:52.657Z,50.62
2023-03-26T06:56:52.730Z,50.62
2023-03-26T06:57:52.652Z,50.62
2023-03-26T06:58:52.608Z,50.62
2023-03-26T06:59:52.618Z,56.25
2023-03-26T07:00:52.705Z,56.25
2023-03-26T07:01:52.618Z,56.25
2023-03-26T07:02:52.628Z,56.25
2023-03-26T07:03:52.673Z,56.25
2023-03-26T07:04:52.585Z,50.62
2023-03-26T07:05:52.587Z,50.62
2023-03-26T07:06:52.588Z,50.62
2023-03-26T07:07:52.552Z,50.62
2023-03-26T07:08:52.499Z,50.62
2023-03-26T07:09:52.582Z,50.62
2023-03-26T07:10:52.747Z,45.00
2023-03-26T07:11:52.507Z,45.00
2023-03-26T07:12:52.449Z,45.00
2023-03-26T07:13:52.473Z,45.00
2023-03-26T07:14:52.415Z,45.00
2023-03-26T07:15:52.402Z,50.62
2023-03-26T07:16:52.473Z,50.62
2023-03-26T07:17:52.435Z,50.62
2023-03-26T07:18:52.361Z,50.62
2023-03-26T07:19:52.350Z,50.62
2023-03-26T07:20:52.524Z,50.62
2023-03-26T07:21:52.571Z,50.62
2023-03-26T07:22:52.343Z,50.62
2023-03-26T07:23:52.625Z,50.62
2023-03-26T07:24:52.366Z,50.62
2023-03-26T07:25:52.302Z,50.62
2023-03-26T07:26:52.280Z,50.62
2023-03-26T07:27:52.269Z,45.00
2023-03-26T07:29:04.812Z,45.00
2023-03-26T07:29:53.243Z,45.00
2023-03-26T07:30:52.229Z,39.38
2023-03-26T07:31:52.262Z,39.38
2023-03-26T07:32:52.305Z,39.38
2023-03-26T07:33:52.644Z,39.38
2023-03-26T07:34:52.296Z,45.00
2023-03-26T07:35:52.216Z,45.00
2023-03-26T07:36:52.146Z,39.38
2023-03-26T07:37:52.138Z,39.38
2023-03-26T07:38:52.101Z,39.38
2023-03-26T07:39:52.162Z,39.38
2023-03-26T07:40:52.192Z,45.00
2023-03-26T07:41:52.141Z,50.62
2023-03-26T07:42:52.081Z,50.62
2023-03-26T07:43:52.073Z,50.62
2023-03-26T07:44:52.029Z,50.62
2023-03-26T07:45:52.133Z,50.62
2023-03-26T07:46:52.026Z,45.00
2023-03-26T07:47:52.063Z,45.00
2023-03-26T07:48:51.994Z,45.00
2023-03-26T07:49:51.971Z,39.38
2023-03-26T07:50:52.019Z,39.38
2023-03-26T07:51:52.007Z,39.38
2023-03-26T07:52:51.948Z,39.38
2023-03-26T07:53:51.954Z,39.38
2023-03-26T07:54:51.901Z,39.38
2023-03-26T07:55:51.952Z,39.38
2023-03-26T07:56:53.332Z,39.38
2023-03-26T07:57:51.905Z,39.38
2023-03-26T07:58:51.867Z,45.00
2023-03-26T07:59:51.840Z,45.00
2023-03-26T08:00:51.858Z,45.00
2023-03-26T08:01:51.829Z,45.00
2023-03-26T08:02:51.893Z,45.00
2023-03-26T08:03:51.882Z,45.00
2023-03-26T08:04:51.839Z,45.00
2023-03-26T08:05:51.784Z,45.00
2023-03-26T08:06:51.739Z,45.00
2023-03-26T08:07:51.772Z,39.38
2023-03-26T08:08:51.723Z,39.38
2023-03-26T08:09:51.792Z,39.38
2023-03-26T08:10:51.728Z,39.38
2023-03-26T08:11:51.717Z,39.38
2023-03-26T08:12:51.680Z,39.38
2023-03-26T08:13:51.670Z,33.75
2023-03-26T08:14:51.667Z,33.75
2023-03-26T08:15:51.682Z,33.75
2023-03-26T08:16:51.619Z,33.75
2023-03-26T08:17:51.684Z,33.75
2023-03-26T08:18:51.588Z,33.75
2023-03-26T08:19:51.586Z,33.75
2023-03-26T08:20:51.583Z,33.75
2023-03-26T08:21:51.566Z,33.75
2023-03-26T08:22:51.537Z,39.38
2023-03-26T08:23:51.618Z,39.38
2023-03-26T08:24:51.518Z,33.75
2023-03-26T08:25:51.527Z,33.75
2023-03-26T08:26:51.496Z,33.75
2023-03-26T08:27:51.470Z,33.75
2023-03-26T08:28:51.490Z,33.75
2023-03-26T08:29:51.458Z,33.75
2023-03-26T08:30:51.472Z,39.38
2023-03-26T08:31:51.444Z,39.38
2023-03-26T08:32:51.448Z,39.38
2023-03-26T08:33:51.432Z,39.38
2023-03-26T08:34:51.396Z,39.38
2023-03-26T08:35:51.419Z,39.38
2023-03-26T08:36:51.358Z,33.75
2023-03-26T08:37:51.373Z,33.75
2023-03-26T08:38:51.355Z,33.75
2023-03-26T08:39:51.367Z,33.75
2023-03-26T08:40:51.329Z,33.75
2023-03-26T08:41:51.317Z,33.75
2023-03-26T08:42:51.292Z,28.12
2023-03-26T08:43:51.574Z,33.75
2023-03-26T08:44:51.292Z,33.75
2023-03-26T08:45:51.320Z,33.75
2023-03-26T08:46:51.305Z,39.38
2023-03-26T08:47:51.257Z,39.38
2023-03-26T08:48:51.235Z,45.00
2023-03-26T08:49:51.213Z,45.00
2023-03-26T08:50:51.211Z,50.62
2023-03-26T08:51:51.214Z,50.62
2023-03-26T08:52:51.167Z,56.25
2023-03-26T08:53:51.152Z,50.62
2023-03-26T08:54:51.170Z,45.00
2023-03-26T08:55:51.136Z,39.38
2023-03-26T08:56:51.153Z,33.75
2023-03-26T08:57:51.110Z,33.75
2023-03-26T08:58:51.087Z,33.75
2023-03-26T08:59:51.103Z,39.38
2023-03-26T09:00:51.092Z,39.38
2023-03-26T09:01:51.125Z,39.38
2023-03-26T09:02:51.081Z,33.75
2023-03-26T09:03:51.080Z,33.75
2023-03-26T09:04:51.028Z,33.75
2023-03-26T09:05:51.074Z,33.75
2023-03-26T09:06:50.993Z,28.12
2023-03-26T09:07:51.008Z,28.12
2023-03-26T09:08:54.203Z,28.12
2023-03-26T09:09:50.976Z,28.12
2023-03-26T09:10:50.964Z,22.50
2023-03-26T09:11:50.947Z,22.50
2023-03-26T09:12:50.915Z,22.50
2023-03-26T09:13:51.030Z,22.50
2023-03-26T09:14:50.901Z,22.50
2023-03-26T09:15:50.982Z,22.50
2023-03-26T09:16:50.860Z,22.50
2023-03-26T09:17:50.972Z,28.12
2023-03-26T09:18:50.862Z,28.12
2023-03-26T09:19:50.846Z,28.12
2023-03-26T09:20:50.865Z,28.12
2023-03-26T09:21:50.827Z,28.12
2023-03-26T09:22:50.797Z,28.12
2023-03-26T09:23:50.766Z,28.12
2023-03-26T09:24:50.816Z,28.12
2023-03-26T09:25:50.754Z,33.75
2023-03-26T09:26:50.755Z,33.75
2023-03-26T09:27:50.811Z,39.38
2023-03-26T09:28:50.725Z,45.00
2023-03-26T09:29:50.688Z,50.62
2023-03-26T09:30:50.695Z,61.88
2023-03-26T09:31:50.812Z,67.50
2023-03-26T09:32:50.693Z,61.88
2023-03-26T09:33:50.658Z,61.88
2023-03-26T09:34:50.632Z,56.25
2023-03-26T09:35:50.664Z,50.62
2023-03-26T09:36:50.647Z,50.62
2023-03-26T09:37:56.722Z,50.62
2023-03-26T09:38:51.593Z,45.00
2023-03-26T09:39:50.574Z,39.38
2023-03-26T09:40:52.789Z,33.75
2023-03-26T09:41:50.594Z,28.12
2023-03-26T09:42:50.525Z,28.12
2023-03-26T09:43:50.534Z,28.12
2023-03-26T09:44:50.504Z,28.12
2023-03-26T09:45:50.544Z,28.12
2023-03-26T09:46:50.541Z,28.12
2023-03-26T10:02:46.763Z,28.12
2023-03-26T10:03:43.271Z,28.12
2023-03-26T10:04:43.531Z,33.75
2023-03-26T10:05:43.257Z,33.75
2023-03-26T10:06:43.243Z,33.75
2023-03-26T10:07:43.239Z,28.12
2023-03-26T10:08:43.212Z,28.12
2023-03-26T10:09:43.207Z,28.12
2023-03-26T10:10:43.230Z,33.75
2023-03-26T10:11:43.323Z,39.38
2023-03-26T10:12:43.266Z,39.38
2023-03-26T10:13:43.333Z,50.62
2023-03-26T10:14:43.287Z,50.62
2023-03-26T10:15:43.163Z,50.62
2023-03-26T10:16:43.241Z,45.00
2023-03-26T10:17:52.843Z,45.00
2023-03-26T10:18:43.091Z,50.62
2023-03-26T10:19:43.070Z,45.00
2023-03-26T10:20:43.046Z,39.38
2023-03-26T10:21:43.042Z,33.75
2023-03-26T10:22:43.093Z,33.75
2023-03-26T10:23:43.018Z,33.75
2023-03-26T10:24:43.025Z,33.75
2023-03-26T10:25:43.000Z,33.75
2023-03-26T10:27:09.159Z,39.38
2023-03-26T10:27:43.963Z,39.38
2023-03-26T10:28:42.963Z,39.38
2023-03-26T10:29:42.971Z,39.38
2023-03-26T10:30:42.968Z,33.75
2023-03-26T10:31:42.906Z,33.75
2023-03-26T10:32:42.950Z,33.75
2023-03-26T10:33:42.924Z,39.38
2023-03-26T10:34:42.891Z,33.75
2023-03-26T10:35:42.905Z,39.38
2023-03-26T10:36:42.848Z,45.00
2023-03-26T10:37:42.839Z,45.00
2023-03-26T10:38:42.850Z,39.38
2023-03-26T10:39:43.618Z,45.00
2023-03-26T10:40:42.840Z,50.62
2023-03-26T10:41:42.809Z,50.62
2023-03-26T10:42:42.792Z,56.25
2023-03-26T10:43:42.794Z,56.25
2023-03-26T10:44:42.770Z,56.25
2023-03-26T10:45:42.739Z,56.25
2023-03-26T10:46:42.883Z,61.88
2023-03-26T10:47:42.781Z,67.50
2023-03-26T10:48:42.736Z,73.12
2023-03-26T10:49:42.712Z,67.50
2023-03-26T10:50:42.676Z,61.88
2023-03-26T10:51:42.667Z,61.88
2023-03-26T10:52:42.657Z,61.88
2023-03-26T10:53:42.636Z,56.25
2023-03-26T10:54:42.639Z,56.25
2023-03-26T10:55:42.613Z,56.25
2023-03-26T10:56:42.635Z,56.25
2023-03-26T10:57:42.593Z,50.62
2023-03-26T10:58:48.284Z,45.00
2023-03-26T10:59:43.590Z,39.38
2023-03-26T11:00:42.554Z,45.00
2023-03-26T11:01:42.588Z,56.25
2023-03-26T11:02:42.615Z,61.88
2023-03-26T11:03:42.560Z,67.50
2023-03-26T11:04:42.524Z,61.88
2023-03-26T11:05:42.584Z,56.25
2023-03-26T11:06:42.484Z,56.25
2023-03-26T11:07:42.464Z,56.25
2023-03-26T11:08:42.496Z,50.62
2023-03-26T11:09:42.450Z,50.62
2023-03-26T11:10:42.468Z,50.62
2023-03-26T11:11:42.417Z,45.00
2023-03-26T11:12:42.429Z,45.00
2023-03-26T11:13:42.427Z,45.00
2023-03-26T11:14:42.389Z,33.75
2023-03-26T11:15:42.418Z,33.75
2023-03-26T11:16:42.363Z,28.12
2023-03-26T11:17:42.401Z,28.12
2023-03-26T11:18:42.392Z,22.50
2023-03-26T11:19:42.329Z,22.50
2023-03-26T11:20:42.320Z,28.12
2023-03-26T11:21:42.293Z,50.62
2023-03-26T11:22:42.300Z,56.25
2023-03-26T11:23:42.285Z,61.88
2023-03-26T11:24:42.283Z,67.50
2023-03-26T11:25:42.262Z,67.50
2023-03-26T11:26:42.240Z,61.88
2023-03-26T11:27:42.237Z,56.25
2023-03-26T11:28:42.226Z,56.25
2023-03-26T11:29:43.193Z,45.00
2023-03-26T11:30:42.195Z,39.38
2023-03-26T11:31:42.209Z,39.38
2023-03-26T11:32:42.225Z,39.38
2023-03-26T11:33:46.395Z,39.38
2023-03-26T11:34:43.150Z,45.00
2023-03-26T11:35:42.162Z,67.50
2023-03-26T11:36:42.129Z,78.75
2023-03-26T11:37:42.094Z,73.12
2023-03-26T11:38:42.096Z,73.12
2023-03-26T11:39:42.062Z,61.88
2023-03-26T11:40:42.106Z,50.62
2023-03-26T11:41:42.055Z,50.62
2023-03-26T11:42:42.029Z,56.25
2023-03-26T11:43:42.034Z,56.25
2023-03-26T11:44:42.046Z,56.25
2023-03-26T11:45:42.003Z,50.62
2023-03-26T11:46:42.011Z,56.25
2023-03-26T11:47:42.010Z,61.88
2023-03-26T11:48:41.976Z,67.50
2023-03-26T11:49:41.985Z,73.12
2023-03-26T11:50:41.947Z,78.75
2023-03-26T11:51:41.929Z,90.00
2023-03-26T11:52:41.928Z,84.38
2023-03-26T11:53:41.892Z,84.38
2023-03-26T11:54:41.888Z,73.12
2023-03-26T11:55:41.888Z,78.75
2023-03-26T11:56:41.922Z,73.12
2023-03-26T11:57:42.830Z,73.12
2023-03-26T11:58:41.853Z,61.88
2023-03-26T11:59:53.344Z,56.25
2023-03-26T12:00:42.810Z,56.25
2023-03-26T12:01:41.861Z,50.62
2023-03-26T12:02:41.890Z,56.25
2023-03-26T12:03:41.745Z,56.25
2023-03-26T12:04:41.843Z,50.62
2023-03-26T12:05:41.753Z,50.62
2023-03-26T12:06:41.744Z,50.62
2023-03-26T12:07:41.735Z,45.00
2023-03-26T12:08:41.699Z,56.25
2023-03-26T12:09:41.693Z,73.12
2023-03-26T12:10:41.699Z,78.75
2023-03-26T12:11:41.676Z,90.00
2023-03-26T12:12:41.649Z,84.38
2023-03-26T12:13:41.624Z,67.50
2023-03-26T12:14:41.670Z,61.88
2023-03-26T12:15:41.647Z,50.62
2023-03-26T12:16:41.698Z,56.25
2023-03-26T12:17:41.620Z,61.88
2023-03-26T12:18:41.592Z,67.50
2023-03-26T12:19:41.568Z,56.25
2023-03-26T12:20:41.567Z,61.88
2023-03-26T12:21:41.584Z,84.38
2023-03-26T12:22:43.580Z,78.75
2023-03-26T12:23:41.534Z,84.38
2023-03-26T12:24:41.543Z,118.12
2023-03-26T12:25:41.512Z,112.50
2023-03-26T12:26:41.577Z,163.12
2023-03-26T12:27:41.501Z,1001.25
2023-03-26T12:28:42.988Z,562.50
2023-03-26T12:29:41.424Z,2407.50
2023-03-26T12:30:41.473Z,894.38
2023-03-26T12:31:41.484Z,1175.62
2023-03-26T12:32:46.207Z,1845.00
2023-03-26T12:33:42.428Z,1350.00
2023-03-26T12:34:41.417Z,2497.50
2023-03-26T12:35:41.390Z,1856.25
2023-03-26T12:36:41.387Z,1468.12
2023-03-26T12:37:41.326Z,1271.25
2023-03-26T12:38:41.324Z,736.88
2023-03-26T12:40:08.111Z,855.00
2023-03-26T12:40:42.308Z,984.38
2023-03-26T12:42:36.733Z,3976.88
2023-03-26T12:44:48.638Z,3875.62
2023-03-26T12:44:49.338Z,3521.25
2023-03-26T12:44:55.068Z,3470.62
2023-03-26T12:45:42.337Z,596.25
2023-03-26T12:47:56.279Z,2407.50
2023-03-26T12:47:57.132Z,3718.12
2023-03-26T12:48:42.261Z,2210.62
2023-03-26T12:49:41.189Z,3695.62
2023-03-26T12:50:41.173Z,4083.75
2023-03-26T12:51:41.158Z,3408.75
2023-03-26T12:52:41.145Z,3605.62
2023-03-26T12:53:41.131Z,3560.62
2023-03-26T12:54:41.144Z,3465.00
2023-03-26T12:55:41.100Z,3808.12
2023-03-26T12:56:41.097Z,4140.00
2023-03-26T12:57:41.149Z,3915.00
2023-03-26T12:58:41.100Z,3431.25
2023-03-26T12:59:41.079Z,3088.12
2023-03-26T13:00:41.036Z,3380.62
2023-03-26T13:01:41.120Z,3729.38
2023-03-26T13:02:41.083Z,3774.38
2023-03-26T13:03:41.010Z,3060.00
2023-03-26T13:04:42.367Z,3521.25
2023-03-26T13:05:40.989Z,3616.88
2023-03-26T13:06:58.975Z,3706.88
2023-03-26T13:07:41.953Z,3459.38
2023-03-26T13:08:40.942Z,3352.50
2023-03-26T13:09:40.914Z,3594.38
2023-03-26T13:10:40.935Z,3616.88
2023-03-26T13:11:40.957Z,3403.12
2023-03-26T13:12:40.909Z,646.88
2023-03-26T13:13:40.890Z,1597.50
2023-03-26T13:14:40.869Z,405.00
2023-03-26T13:15:40.894Z,2936.25
2023-03-26T13:16:40.949Z,1355.62
2023-03-26T13:17:40.883Z,3375.00
2023-03-26T13:18:40.815Z,1153.12
2023-03-26T13:19:40.824Z,3054.38
2023-03-26T13:20:40.821Z,1828.12
2023-03-26T13:21:40.773Z,3870.00
2023-03-26T13:22:40.798Z,3616.88
2023-03-26T13:23:40.751Z,3183.75
2023-03-26T13:24:40.766Z,3616.88
2023-03-26T13:25:40.753Z,3605.62
2023-03-26T13:26:40.719Z,2981.25